Time;durP1;ratioP1;P1;durP2;ratioP2;P2;SDS_P1;SDS_P2;PMS_P1;PMS_P2;Temp;Humidity;BMP_temperature;BMP_pressure;BME280_temperature;BME280_humidity;BME280_pressure;Samples;Min_cycle;Max_cycle;Signal;HPM_P1;HPM_P2
2023/01/09 00:02:03;;;;;;;22.00;11.40;;;;;;;-6.78;69.80;100677.32;106066;1251;68655;-69
2023/01/09 00:04:30;;;;;;;21.90;12.40;;;;;;;-6.84;69.70;100689.52;106106;1250;72724;-72
2023/01/09 00:06:56;;;;;;;31.10;12.10;;;;;;;-6.92;69.67;100682.29;106067;1257;60638;-73
2023/01/09 00:09:24;;;;;;;25.20;13.10;;;;;;;-6.96;69.92;100684.11;107319;1251;60505;-76
2023/01/09 00:11:53;;;;;;;22.80;12.20;;;;;;;-6.99;70.00;100679.52;107391;1250;72717;-76
2023/01/09 00:14:21;;;;;;;23.90;11.60;;;;;;;-7.03;70.01;100683.58;108120;1254;69287;-76
2023/01/09 00:16:48;;;;;;;27.80;13.10;;;;;;;-7.05;70.13;100683.96;108260;1251;71473;-76
2023/01/09 00:19:15;;;;;;;22.40;9.80;;;;;;;-6.92;70.04;100691.08;107635;1252;61693;-76
2023/01/09 00:21:41;;;;;;;20.40;10.40;;;;;;;-6.75;69.82;100685.36;107591;1250;59650;-74
2023/01/09 00:24:09;;;;;;;22.90;10.70;;;;;;;-6.66;69.62;100690.66;107897;1251;72639;-76
2023/01/09 00:26:36;;;;;;;22.80;11.90;;;;;;;-6.68;69.31;100690.70;107563;1251;70338;-77
2023/01/09 00:29:04;;;;;;;23.70;11.70;;;;;;;-6.71;69.38;100682.50;107343;1253;72578;-77
2023/01/09 00:31:30;;;;;;;26.50;13.00;;;;;;;-6.73;69.13;100683.07;107409;1251;60430;-76
2023/01/09 00:33:59;;;;;;;20.90;10.40;;;;;;;-6.75;69.20;100680.70;108235;1250;59237;-77
2023/01/09 00:36:27;;;;;;;27.60;12.00;;;;;;;-6.79;69.15;100672.35;107249;1250;73776;-73
2023/01/09 00:38:53;;;;;;;26.00;12.10;;;;;;;-6.80;69.24;100676.70;108027;1251;69385;-76
2023/01/09 00:41:32;;;;;;;24.20;12.90;;;;;;;-6.81;69.10;100667.57;107095;1251;72334;-73
2023/01/09 00:44:02;;;;;;;22.40;11.60;;;;;;;-6.84;68.98;100658.52;107218;1251;61346;-73
2023/01/09 00:46:38;;;;;;;19.70;10.80;;;;;;;-6.84;69.16;100657.48;106979;1251;60452;-74
2023/01/09 00:49:04;;;;;;;23.40;10.70;;;;;;;-6.66;69.03;100646.05;106904;1255;74084;-75
2023/01/09 00:51:31;;;;;;;18.00;10.60;;;;;;;-6.49;68.64;100648.71;107312;1251;68048;-75
2023/01/09 00:53:58;;;;;;;20.60;11.20;;;;;;;-6.41;68.45;100631.45;106775;1256;72269;-74
2023/01/09 00:56:25;;;;;;;22.00;11.20;;;;;;;-6.45;68.08;100629.48;106949;1251;60482;-74
2023/01/09 00:58:52;;;;;;;22.90;11.80;;;;;;;-6.48;68.00;100632.49;107522;1251;60341;-77
2023/01/09 01:01:21;;;;;;;18.00;10.40;;;;;;;-6.52;67.73;100631.38;108751;1250;73237;-77
2023/01/09 01:03:49;;;;;;;24.60;11.80;;;;;;;-6.58;67.91;100627.58;108004;1251;70356;-76
2023/01/09 01:09:01;;;;;;;19.70;10.70;;;;;;;-6.65;68.02;100629.48;107840;1250;61246;-78
2023/01/09 01:11:28;;;;;;;21.80;11.80;;;;;;;-6.68;68.07;100633.33;108143;1250;60494;-77
2023/01/09 01:13:55;;;;;;;23.60;11.90;;;;;;;-6.70;68.14;100623.21;107994;1251;72602;-77
2023/01/09 01:16:22;;;;;;;23.70;10.70;;;;;;;-6.69;68.11;100617.01;108130;1251;70527;-78
2023/01/09 01:18:49;;;;;;;25.30;11.20;;;;;;;-6.56;68.25;100603.56;108275;1251;71643;-76
2023/01/09 01:21:16;;;;;;;21.20;10.70;;;;;;;-6.36;67.94;100604.95;108018;1251;60361;-77
2023/01/09 01:23:43;;;;;;;20.60;11.50;;;;;;;-6.28;67.36;100611.82;108255;1250;60290;-76
2023/01/09 01:26:12;;;;;;;24.30;12.40;;;;;;;-6.28;67.11;100602.02;108552;1254;73648;-76
2023/01/09 01:28:40;;;;;;;23.50;11.60;;;;;;;-6.29;67.16;100598.25;108897;1251;71297;-77
2023/01/09 01:31:07;;;;;;;28.10;13.20;;;;;;;-6.29;67.21;100586.86;108381;1251;72629;-77
2023/01/09 01:33:34;;;;;;;21.70;10.40;;;;;;;-6.29;67.05;100582.20;108083;1251;60272;-74
2023/01/09 01:36:05;;;;;;;22.80;12.10;;;;;;;-6.31;67.19;100582.76;106528;1255;59581;-74
2023/01/09 01:38:33;;;;;;;25.50;12.60;;;;;;;-6.33;67.27;100579.02;106403;1254;72899;-74
2023/01/09 01:41:01;;;;;;;24.70;11.00;;;;;;;-6.35;67.42;100584.06;106456;1254;69901;-75
2023/01/09 01:43:46;;;;;;;23.40;12.60;;;;;;;-6.40;67.46;100584.54;106773;1254;72653;-73
2023/01/09 01:46:13;;;;;;;21.90;12.40;;;;;;;-6.46;67.81;100583.52;106880;1250;61458;-74
2023/01/09 01:48:39;;;;;;;20.40;11.00;;;;;;;-6.55;67.92;100571.30;106923;1251;61020;-73
2023/01/09 01:51:06;;;;;;;20.20;9.70;;;;;;;-6.57;68.26;100571.19;107246;1251;74725;-73
2023/01/09 01:53:38;;;;;;;22.40;10.00;;;;;;;-6.40;68.46;100569.23;107148;1251;70530;-74
2023/01/09 01:56:09;;;;;;;20.40;10.10;;;;;;;-6.26;68.38;100567.29;106371;1251;73746;-74
2023/01/09 01:58:55;;;;;;;25.00;10.80;;;;;;;-6.20;68.37;100567.65;106305;1255;60484;-74
2023/01/09 02:01:22;;;;;;;20.50;9.90;;;;;;;-6.21;67.99;100569.39;107727;1251;60370;-77
2023/01/09 02:03:51;;;;;;;23.50;10.90;;;;;;;-6.22;67.92;100564.09;109304;1250;73759;-79
2023/01/09 02:06:18;;;;;;;23.20;9.90;;;;;;;-6.26;67.97;100561.27;108666;1250;68263;-76
2023/01/09 02:08:45;;;;;;;20.40;10.00;;;;;;;-6.29;68.15;100552.56;108719;1251;72591;-78
2023/01/09 02:11:13;;;;;;;21.00;10.70;;;;;;;-6.33;68.32;100547.81;108411;1251;59418;-76
2023/01/09 02:13:40;;;;;;;25.50;9.50;;;;;;;-6.35;68.53;100542.37;107389;1250;60532;-75
2023/01/09 02:16:23;;;;;;;17.30;9.40;;;;;;;-6.40;68.87;100538.86;107039;1251;75030;-75
2023/01/09 02:19:15;;;;;;;21.60;9.80;;;;;;;-6.43;69.20;100539.29;106874;1254;68403;-73
2023/01/09 02:21:59;;;;;;;19.30;9.30;;;;;;;-6.49;69.80;100527.04;106940;1250;72845;-76
2023/01/09 02:25:08;;;;;;;21.20;9.90;;;;;;;-6.55;70.21;100521.52;106776;1250;60469;-74
2023/01/09 02:28:01;;;;;;;18.70;9.20;;;;;;;-6.41;70.29;100517.69;106804;1254;60524;-75
2023/01/09 02:30:43;;;;;;;15.90;8.40;;;;;;;-6.24;70.40;100514.48;107721;1251;72702;-73
2023/01/09 02:33:32;;;;;;;19.90;9.00;;;;;;;-6.19;70.22;100516.56;106281;1251;70537;-73
2023/01/09 02:36:11;;;;;;;18.20;9.00;;;;;;;-6.25;70.32;100521.23;106413;1251;72112;-72
2023/01/09 02:38:56;;;;;;;23.40;8.70;;;;;;;-6.32;70.98;100521.06;107275;1251;60347;-74
2023/01/09 02:41:37;;;;;;;18.10;8.90;;;;;;;-6.40;71.12;100523.36;106829;1251;60441;-73
2023/01/09 02:44:24;;;;;;;20.20;9.30;;;;;;;-6.47;71.07;100517.34;106417;1251;72441;-72
2023/01/09 02:47:25;;;;;;;18.50;8.90;;;;;;;-6.55;71.68;100511.34;106689;1251;71374;-75
2023/01/09 02:49:56;;;;;;;19.90;9.10;;;;;;;-6.62;72.75;100521.01;107035;1251;73731;-73
2023/01/09 02:52:50;;;;;;;19.10;8.70;;;;;;;-6.67;73.13;100521.49;107086;1250;60385;-73
2023/01/09 02:55:38;;;;;;;21.70;9.00;;;;;;;-6.68;73.18;100507.20;106952;1251;61558;-74
2023/01/09 02:58:09;;;;;;;19.80;8.20;;;;;;;-6.52;73.31;100512.66;107437;1254;73329;-72
2023/01/09 03:01:14;;;;;;;18.90;7.90;;;;;;;-6.40;73.50;100506.99;107269;1256;70467;-73
2023/01/09 03:03:52;;;;;;;20.80;7.50;;;;;;;-6.36;73.60;100507.73;107054;1251;73224;-75
2023/01/09 03:06:43;;;;;;;19.80;8.00;;;;;;;-6.38;73.87;100510.89;107931;1251;60496;-76
2023/01/09 03:09:16;;;;;;;25.40;8.80;;;;;;;-6.45;74.42;100517.98;107539;1251;60467;-76
2023/01/09 03:11:45;;;;;;;18.40;7.90;;;;;;;-6.57;75.87;100510.70;107605;1251;73184;-75
2023/01/09 03:14:15;;;;;;;23.00;9.00;;;;;;;-6.63;76.64;100510.36;107661;1251;68478;-74
2023/01/09 03:16:44;;;;;;;20.90;9.60;;;;;;;-6.68;77.07;100511.50;108126;1250;71425;-76
2023/01/09 03:19:19;;;;;;;19.60;8.50;;;;;;;-6.73;77.37;100505.61;109147;1250;60045;-76
2023/01/09 03:21:46;;;;;;;25.10;8.60;;;;;;;-6.74;77.59;100498.92;108459;1251;60424;-77
2023/01/09 03:24:15;;;;;;;19.80;8.20;;;;;;;-6.59;77.51;100497.16;108509;1251;73852;-79
2023/01/09 03:26:44;;;;;;;17.80;8.60;;;;;;;-6.50;77.21;100491.91;108710;1251;68083;-75
2023/01/09 03:29:11;;;;;;;20.70;7.80;;;;;;;-6.53;77.37;100481.29;107635;1251;71673;-76
2023/01/09 03:31:37;;;;;;;17.60;8.90;;;;;;;-6.56;77.51;100481.55;107599;1251;60354;-75
2023/01/09 03:34:04;;;;;;;17.80;8.60;;;;;;;-6.60;78.05;100482.53;108718;1250;60427;-74
2023/01/09 03:36:31;;;;;;;18.80;8.80;;;;;;;-6.64;78.36;100477.83;108954;1250;73434;-77
2023/01/09 03:38:58;;;;;;;16.80;8.30;;;;;;;-6.70;78.67;100478.48;108639;1250;69594;-75
2023/01/09 03:41:24;;;;;;;20.00;8.20;;;;;;;-6.62;79.11;100470.54;108464;1252;70386;-76
2023/01/09 03:43:52;;;;;;;17.10;7.70;;;;;;;-6.49;78.87;100477.05;108675;1251;60236;-76
2023/01/09 03:46:21;;;;;;;18.50;7.80;;;;;;;-6.51;79.00;100480.39;108491;1251;59360;-76
2023/01/09 03:48:48;;;;;;;16.60;7.60;;;;;;;-6.56;79.20;100475.69;108489;1251;72880;-77
2023/01/09 03:51:14;;;;;;;20.30;8.10;;;;;;;-6.60;79.19;100473.92;108413;1251;70121;-75
2023/01/09 03:53:42;;;;;;;17.10;7.90;;;;;;;-6.65;79.50;100474.20;108764;1251;71000;-76
2023/01/09 03:56:10;;;;;;;17.70;8.70;;;;;;;-6.66;79.73;100474.77;109003;1251;58280;-78
2023/01/09 03:58:36;;;;;;;20.00;8.20;;;;;;;-6.57;79.58;100468.84;109123;1253;60331;-76
2023/01/09 04:01:11;;;;;;;16.10;8.00;;;;;;;-6.45;79.50;100468.35;109143;1251;72073;-76
2023/01/09 04:03:38;;;;;;;16.00;8.40;;;;;;;-6.47;79.50;100467.35;108786;1251;69634;-78
2023/01/09 04:06:06;;;;;;;18.80;7.50;;;;;;;-6.51;79.45;100464.02;108537;1251;71585;-75
2023/01/09 04:08:33;;;;;;;17.90;8.10;;;;;;;-6.54;79.55;100458.77;108685;1251;60305;-72
2023/01/09 04:11:00;;;;;;;22.50;9.40;;;;;;;-6.58;79.74;100465.77;107457;1251;60287;-75
2023/01/09 04:13:29;;;;;;;17.60;8.10;;;;;;;-6.60;80.05;100473.03;108384;1251;73513;-74
2023/01/09 04:15:55;;;;;;;19.70;8.50;;;;;;;-6.48;79.91;100449.64;107916;1251;60577;-72
2023/01/09 04:18:22;;;;;;;21.60;9.30;;;;;;;-6.44;79.85;100453.84;107659;1251;73524;-74
2023/01/09 04:20:49;;;;;;;20.70;8.90;;;;;;;-6.51;80.16;100450.91;107539;1252;60423;-75
2023/01/09 04:23:16;;;;;;;25.60;9.30;;;;;;;-6.54;80.33;100452.58;107749;1251;60350;-76
2023/01/09 04:25:42;;;;;;;28.50;10.90;;;;;;;-6.57;80.51;100454.35;107922;1251;73658;-71
2023/01/09 04:28:09;;;;;;;21.70;9.20;;;;;;;-6.57;80.81;100448.86;107762;1251;71211;-77
2023/01/09 04:30:37;;;;;;;22.50;8.80;;;;;;;-6.50;81.02;100437.44;107599;1254;73949;-78
2023/01/09 04:33:04;;;;;;;16.70;8.60;;;;;;;-6.49;81.33;100428.80;107936;1251;60758;-75
2023/01/09 04:35:31;;;;;;;23.00;9.70;;;;;;;-6.54;81.50;100437.58;109021;1251;61310;-78
2023/01/09 04:38:00;;;;;;;23.40;10.80;;;;;;;-6.61;81.91;100436.71;109304;1250;72093;-78
2023/01/09 04:40:27;;;;;;;18.70;8.20;;;;;;;-6.65;82.13;100440.96;109260;1250;68278;-78
2023/01/09 04:42:53;;;;;;;17.60;8.00;;;;;;;-6.60;82.17;100422.05;109062;1251;71349;-77
2023/01/09 04:45:20;;;;;;;20.10;9.30;;;;;;;-6.46;81.90;100432.86;108676;1250;59479;-76
2023/01/09 04:47:47;;;;;;;19.30;8.40;;;;;;;-6.44;82.07;100435.23;108166;1250;61200;-76
2023/01/09 04:50:16;;;;;;;16.90;8.40;;;;;;;-6.48;82.09;100436.02;108565;1252;73309;-74
2023/01/09 04:52:43;;;;;;;14.90;9.20;;;;;;;-6.52;82.52;100424.57;108965;1250;70448;-75
2023/01/09 04:55:10;;;;;;;17.10;8.40;;;;;;;-6.55;83.00;100435.18;109075;1251;71661;-78
2023/01/09 04:57:37;;;;;;;17.20;8.90;;;;;;;-6.47;83.07;100429.08;108009;1251;61821;-77
2023/01/09 05:00:08;;;;;;;14.70;7.80;;;;;;;-6.40;83.04;100421.48;108144;1251;61185;-78
2023/01/09 05:02:35;;;;;;;15.10;8.10;;;;;;;-6.45;83.24;100426.29;107960;1251;73962;-79
2023/01/09 05:05:04;;;;;;;15.90;9.00;;;;;;;-6.52;83.63;100424.73;107636;1251;198608;-80
2023/01/09 05:08:46;;;;;;;26.40;9.90;;;;;;;-6.54;84.06;100424.13;104584;1292;599343;-79
2023/01/09 05:11:13;;;;;;;17.70;8.60;;;;;;;-6.42;84.04;100416.89;107065;1268;58839;-79
2023/01/09 05:13:39;;;;;;;16.70;8.50;;;;;;;-6.30;84.11;100417.43;107157;1268;61386;-83
2023/01/09 05:16:07;;;;;;;18.90;10.20;;;;;;;-6.31;84.29;100414.01;107888;1268;73603;-84
2023/01/09 05:18:36;;;;;;;14.40;8.40;;;;;;;-6.35;84.52;100414.77;107897;1268;71294;-85
2023/01/09 05:21:04;;;;;;;27.40;10.30;;;;;;;-6.38;85.12;100414.36;108119;1265;71806;-84
2023/01/09 05:23:30;;;;;;;23.30;10.00;;;;;;;-6.37;85.14;100413.98;108061;1262;176441;-82
2023/01/09 05:25:57;;;;;;;17.20;8.50;;;;;;;-6.24;84.97;100411.88;108594;1257;61486;-81
2023/01/09 05:28:24;;;;;;;15.50;8.30;;;;;;;-6.11;84.73;100417.17;108266;1257;72081;-76
2023/01/09 05:30:51;;;;;;;20.00;9.50;;;;;;;-6.14;84.65;100419.52;106657;1258;71131;-78
2023/01/09 05:33:18;;;;;;;19.80;8.50;;;;;;;-6.19;84.70;100414.33;108175;1257;73086;-79
2023/01/09 05:35:45;;;;;;;19.70;9.10;;;;;;;-6.24;84.69;100408.11;109085;1257;61206;-80
2023/01/09 05:38:12;;;;;;;18.00;8.70;;;;;;;-6.29;84.95;100403.08;108766;1257;59319;-79
2023/01/09 05:40:39;;;;;;;17.50;8.10;;;;;;;-6.21;84.37;100397.48;108593;1257;73900;-77
2023/01/09 05:43:06;;;;;;;13.30;8.10;;;;;;;-6.16;84.27;100400.26;108813;1257;70798;-79
2023/01/09 05:45:33;;;;;;;18.00;8.70;;;;;;;-6.21;84.27;100390.93;108597;1257;71501;-76
2023/01/09 05:48:00;;;;;;;22.20;10.20;;;;;;;-6.24;84.20;100387.92;107916;1257;59538;-78
2023/01/09 05:50:27;;;;;;;17.30;10.00;;;;;;;-6.26;84.35;100402.27;108041;1257;59549;-76
2023/01/09 05:52:54;;;;;;;16.60;9.10;;;;;;;-6.25;84.19;100407.77;107465;1257;74146;-77
2023/01/09 05:55:21;;;;;;;17.10;8.50;;;;;;;-6.08;84.01;100397.61;108029;1257;71158;-81
2023/01/09 05:57:48;;;;;;;17.70;9.00;;;;;;;-6.00;83.63;100398.23;107941;1258;73825;-79
2023/01/09 06:00:18;;;;;;;21.10;9.70;;;;;;;-6.01;83.88;100407.41;108150;1260;60845;-76
2023/01/09 06:02:45;;;;;;;17.10;9.00;;;;;;;-6.04;83.96;100397.66;108758;1261;61606;-75
2023/01/09 06:05:12;;;;;;;18.40;9.60;;;;;;;-6.07;83.98;100409.48;108807;1257;74548;-78
2023/01/09 06:07:39;;;;;;;21.20;10.10;;;;;;;-6.06;83.92;100397.58;108962;1257;71180;-79
2023/01/09 06:10:08;;;;;;;18.90;9.20;;;;;;;-5.91;83.74;100397.23;108181;1257;73467;-78
2023/01/09 06:12:35;;;;;;;22.80;10.70;;;;;;;-5.81;83.53;100387.44;108490;1257;60193;-76
2023/01/09 06:15:02;;;;;;;20.50;10.20;;;;;;;-5.84;83.66;100396.84;108607;1257;61150;-76
2023/01/09 06:17:29;;;;;;;21.50;9.50;;;;;;;-5.86;83.95;100393.98;108911;1257;73859;-80
2023/01/09 06:19:56;;;;;;;17.20;9.50;;;;;;;-5.91;83.97;100398.09;108626;1256;70329;-80
2023/01/09 06:22:23;;;;;;;24.10;10.60;;;;;;;-5.94;83.88;100388.17;108798;1257;71432;-79
2023/01/09 06:24:49;;;;;;;17.50;9.70;;;;;;;-5.82;84.08;100384.54;108723;1256;65828;-77
2023/01/09 06:27:17;;;;;;;20.50;9.90;;;;;;;-5.71;83.78;100387.80;108732;1256;61439;-77
2023/01/09 06:29:43;;;;;;;16.70;9.60;;;;;;;-5.70;84.00;100397.43;108363;1257;74246;-76
2023/01/09 06:32:10;;;;;;;20.70;10.40;;;;;;;-5.74;84.05;100389.97;108554;1257;69431;-77
2023/01/09 06:34:37;;;;;;;19.40;10.60;;;;;;;-5.81;84.36;100382.60;108720;1257;74070;-77
2023/01/09 06:37:04;;;;;;;23.90;10.70;;;;;;;-5.85;84.60;100377.38;108773;1257;61103;-76
2023/01/09 06:39:31;;;;;;;22.40;10.20;;;;;;;-5.82;84.90;100376.60;108626;1258;60910;-75
2023/01/09 06:41:57;;;;;;;16.40;8.90;;;;;;;-5.68;84.66;100380.30;108720;1257;71742;-77
2023/01/09 06:44:24;;;;;;;16.60;9.10;;;;;;;-5.60;84.69;100384.87;108864;1257;71170;-78
2023/01/09 06:46:51;;;;;;;21.10;10.60;;;;;;;-5.64;84.81;100371.20;108852;1256;71363;-76
2023/01/09 06:49:22;;;;;;;20.50;11.00;;;;;;;-5.69;85.04;100377.41;108843;1257;60565;-76
2023/01/09 06:51:51;;;;;;;20.40;10.80;;;;;;;-5.74;85.06;100381.51;108646;1257;59408;-75
2023/01/09 06:54:18;;;;;;;22.90;11.20;;;;;;;-5.77;85.21;100370.94;108779;1257;74164;-77
2023/01/09 06:56:45;;;;;;;17.40;9.30;;;;;;;-5.66;85.34;100377.98;108731;1257;70290;-75
2023/01/09 06:59:12;;;;;;;19.20;10.00;;;;;;;-5.60;85.26;100377.45;108886;1256;73818;-74
2023/01/09 07:01:39;;;;;;;17.50;9.20;;;;;;;-5.63;85.60;100381.70;108901;1256;60724;-76
2023/01/09 07:04:07;;;;;;;22.00;11.80;;;;;;;-5.68;85.72;100385.14;107440;1257;59793;-75
2023/01/09 07:06:35;;;;;;;20.90;9.80;;;;;;;-5.73;85.81;100373.20;105928;1259;75071;-76
2023/01/09 07:09:04;;;;;;;19.20;10.70;;;;;;;-5.64;85.59;100369.81;105502;1258;72397;-75
2023/01/09 07:11:31;;;;;;;19.10;10.30;;;;;;;-5.57;85.40;100384.26;105952;1261;74469;-76
2023/01/09 07:13:58;;;;;;;17.10;10.00;;;;;;;-5.60;85.44;100370.89;105618;1258;60543;-76
2023/01/09 07:16:25;;;;;;;22.80;10.40;;;;;;;-5.64;85.37;100365.48;105558;1262;61317;-77
2023/01/09 07:18:53;;;;;;;19.20;9.80;;;;;;;-5.66;85.64;100373.68;105539;1262;72889;-75
2023/01/09 07:21:20;;;;;;;15.90;9.80;;;;;;;-5.70;85.46;100380.88;105236;1258;69452;-75
2023/01/09 07:23:48;;;;;;;19.70;10.00;;;;;;;-5.59;84.93;100374.11;105481;1257;74825;-75
2023/01/09 07:26:15;;;;;;;20.00;10.10;;;;;;;-5.51;84.87;100369.56;105633;1259;60646;-76
2023/01/09 07:28:42;;;;;;;20.10;9.10;;;;;;;-5.54;84.83;100373.11;105535;1259;60999;-76
2023/01/09 07:31:09;;;;;;;20.20;9.50;;;;;;;-5.60;84.81;100384.16;105471;1257;73706;-75
2023/01/09 07:33:36;;;;;;;16.60;8.60;;;;;;;-5.64;85.02;100386.54;105579;1257;71511;-77
2023/01/09 07:36:03;;;;;;;22.40;8.90;;;;;;;-5.60;85.36;100376.77;105538;1259;72567;-77
2023/01/09 07:38:31;;;;;;;21.00;9.40;;;;;;;-5.51;85.48;100385.08;105422;1258;60130;-75
2023/01/09 07:40:58;;;;;;;19.50;9.60;;;;;;;-5.52;85.56;100378.39;105798;1258;61846;-76
2023/01/09 07:43:25;;;;;;;22.90;10.20;;;;;;;-5.60;85.67;100373.46;105858;1260;72912;-78
2023/01/09 07:45:52;;;;;;;22.00;9.50;;;;;;;-5.63;85.81;100366.31;106203;1258;70531;-76
2023/01/09 07:48:19;;;;;;;18.60;9.00;;;;;;;-5.63;85.92;100363.21;105680;1259;72687;-77
2023/01/09 07:50:46;;;;;;;18.50;10.30;;;;;;;-5.50;86.05;100371.75;105631;1261;62742;-76
2023/01/09 07:53:13;;;;;;;18.90;9.20;;;;;;;-5.42;85.77;100365.61;106107;1257;62361;-77
2023/01/09 07:55:42;;;;;;;23.90;10.70;;;;;;;-5.43;86.11;100367.38;106232;1257;74135;-76
2023/01/09 07:58:08;;;;;;;21.60;10.40;;;;;;;-5.46;85.93;100371.28;106672;1257;72331;-75
2023/01/09 08:00:35;;;;;;;20.50;11.40;;;;;;;-5.49;86.27;100365.67;106347;1259;73730;-75
2023/01/09 08:03:02;;;;;;;20.80;10.00;;;;;;;-5.41;86.41;100375.95;106615;1259;61912;-76
2023/01/09 08:05:30;;;;;;;20.60;10.00;;;;;;;-5.29;86.24;100379.19;106019;1264;62723;-75
2023/01/09 08:07:57;;;;;;;16.00;9.30;;;;;;;-5.30;86.49;100382.15;105742;1257;73520;-77
2023/01/09 08:10:24;;;;;;;27.20;12.40;;;;;;;-5.33;86.55;100380.88;105465;1263;71513;-79
2023/01/09 08:12:51;;;;;;;20.80;10.70;;;;;;;-5.37;86.65;100374.10;105493;1261;72489;-79
2023/01/09 08:15:18;;;;;;;14.10;8.50;;;;;;;-5.37;86.71;100373.91;105554;1256;62854;-77
2023/01/09 08:17:45;;;;;;;18.70;10.10;;;;;;;-5.25;86.42;100367.31;105588;1260;60792;-79
2023/01/09 08:20:14;;;;;;;16.50;9.40;;;;;;;-5.21;86.36;100372.16;105840;1258;75001;-77
2023/01/09 08:22:41;;;;;;;19.50;9.80;;;;;;;-5.26;86.34;100364.77;105682;1261;72007;-78
2023/01/09 08:25:08;;;;;;;23.20;10.80;;;;;;;-5.32;86.75;100374.61;105815;1254;74374;-77
2023/01/09 08:27:38;;;;;;;23.00;10.10;;;;;;;-5.35;86.85;100359.69;105809;1254;64034;-78
2023/01/09 08:30:06;;;;;;;17.70;10.20;;;;;;;-5.22;86.80;100360.48;105690;1256;61099;-77
2023/01/09 08:32:32;;;;;;;17.20;9.00;;;;;;;-5.20;86.84;100355.20;106256;1256;75099;-76
2023/01/09 08:34:59;;;;;;;17.90;9.50;;;;;;;-5.25;87.02;100341.58;106355;1255;72535;-78
2023/01/09 08:37:26;;;;;;;20.20;9.60;;;;;;;-5.29;87.17;100349.83;107083;1255;73546;-78
2023/01/09 08:39:53;;;;;;;22.60;9.70;;;;;;;-5.28;87.24;100341.86;108120;1255;62635;-78
2023/01/09 08:47:52;;;;;;;24.60;9.90;;;;;;;-5.14;87.02;100325.14;106277;1255;72379;-75
2023/01/09 08:50:19;;;;;;;18.50;10.80;;;;;;;-5.22;87.19;100323.49;106379;1256;74652;-77
2023/01/09 08:52:45;;;;;;;20.80;11.00;;;;;;;-5.24;87.44;100320.30;106659;1256;62491;-77
2023/01/09 08:55:12;;;;;;;17.40;9.20;;;;;;;-5.09;87.25;100325.46;106759;1254;61442;-77
2023/01/09 08:57:47;;;;;;;16.40;9.50;;;;;;;-5.03;87.03;100314.55;106706;1260;71885;-78
2023/01/09 09:00:16;;;;;;;21.10;11.20;;;;;;;-5.06;87.05;100304.46;107081;1256;70490;-77
2023/01/09 09:02:43;;;;;;;16.80;10.00;;;;;;;-5.10;87.30;100303.04;106389;1254;74070;-76
2023/01/09 09:05:10;;;;;;;16.60;9.10;;;;;;;-5.10;87.29;100297.71;106015;1260;62796;-76
2023/01/09 09:07:37;;;;;;;17.60;9.60;;;;;;;-4.99;87.10;100290.03;106278;1256;61220;-76
2023/01/09 09:10:04;;;;;;;16.80;10.20;;;;;;;-4.90;87.09;100281.06;106531;1255;75126;-76
2023/01/09 09:12:32;;;;;;;17.70;10.30;;;;;;;-4.90;87.21;100298.03;106019;1258;69836;-76
2023/01/09 09:17:44;;;;;;;20.00;9.70;;;;;;;-4.98;87.09;100278.26;105768;1259;61395;-76
2023/01/09 09:20:11;;;;;;;17.40;8.90;;;;;;;-4.89;87.18;100282.27;105825;1257;62644;-77
2023/01/09 09:22:38;;;;;;;16.30;8.70;;;;;;;-4.80;87.18;100280.02;105599;1263;76155;-77
2023/01/09 09:25:05;;;;;;;19.10;10.20;;;;;;;-4.84;87.19;100280.69;106570;1258;71767;-77
2023/01/09 09:27:32;;;;;;;18.20;9.80;;;;;;;-4.90;87.38;100282.79;105672;1259;73302;-76
2023/01/09 09:29:59;;;;;;;15.50;9.40;;;;;;;-4.93;87.76;100273.41;105500;1257;61965;-78
2023/01/09 09:32:26;;;;;;;16.40;8.80;;;;;;;-4.80;87.63;100294.55;105622;1256;61319;-76
2023/01/09 09:34:53;;;;;;;17.10;9.00;;;;;;;-4.70;87.64;100276.52;105634;1257;76154;-77
2023/01/09 09:37:20;;;;;;;16.10;9.00;;;;;;;-4.73;87.85;100273.52;105657;1260;72446;-76
2023/01/09 09:39:46;;;;;;;18.90;11.40;;;;;;;-4.77;88.16;100272.81;105578;1256;73718;-78
2023/01/09 09:45:12;;;;;;;16.10;8.60;;;;;;;-4.67;88.03;100266.57;105747;1258;62414;-78
2023/01/09 09:47:45;;;;;;;17.00;10.00;;;;;;;-4.60;88.01;100264.56;105534;1254;74900;-77
2023/01/09 09:50:19;;;;;;;19.00;10.50;;;;;;;-4.64;88.25;100256.94;105653;1255;70520;-76
2023/01/09 09:52:54;;;;;;;18.00;10.60;;;;;;;-4.66;88.40;100258.05;105906;1254;73032;-76
2023/01/09 09:55:24;;;;;;;15.00;9.50;;;;;;;-4.65;88.30;100255.77;105661;1254;63489;-78
2023/01/09 09:57:51;;;;;;;21.30;10.90;;;;;;;-4.53;88.19;100263.61;105676;1254;62501;-78
2023/01/09 10:00:20;;;;;;;20.80;10.80;;;;;;;-4.47;88.14;100260.60;105599;1255;75827;-78
2023/01/09 10:02:50;;;;;;;19.40;9.90;;;;;;;-4.53;88.33;100255.11;106066;1258;72377;-77
2023/01/09 10:05:19;;;;;;;17.20;9.70;;;;;;;-4.59;88.37;100247.57;106068;1256;72878;-79
2023/01/09 10:07:49;;;;;;;17.30;8.90;;;;;;;-4.59;88.61;100248.46;105964;1256;63199;-76
2023/01/09 10:10:31;;;;;;;14.60;9.20;;;;;;;-4.45;88.40;100233.57;107735;1254;60906;-77
2023/01/09 10:12:58;;;;;;;17.80;9.30;;;;;;;-4.36;88.36;100231.27;106998;1254;74841;-78
2023/01/09 10:15:28;;;;;;;14.30;8.70;;;;;;;-4.37;88.45;100238.58;107358;1256;71288;-75
2023/01/09 10:18:02;;;;;;;19.90;11.10;;;;;;;-4.38;88.58;100237.08;106376;1260;73576;-78
2023/01/09 10:20:31;;;;;;;18.20;10.30;;;;;;;-4.39;88.48;100231.94;106039;1260;62258;-77
2023/01/09 10:23:14;;;;;;;16.30;9.20;;;;;;;-4.27;88.63;100234.75;106845;1254;60943;-75
2023/01/09 10:25:49;;;;;;;15.30;8.80;;;;;;;-4.20;88.43;100231.15;108255;1259;74711;-76
2023/01/09 10:28:21;;;;;;;17.30;9.50;;;;;;;-4.22;88.63;100231.59;108461;1254;71205;-76
2023/01/09 10:30:53;;;;;;;13.70;8.00;;;;;;;-4.27;89.01;100238.54;108799;1253;73754;-76
2023/01/09 10:33:39;;;;;;;12.10;7.80;;;;;;;-4.20;89.07;100231.50;107493;1255;63492;-77
2023/01/09 10:36:24;;;;;;;14.10;7.70;;;;;;;-4.07;88.91;100226.67;106888;1255;60620;-76
2023/01/09 10:38:52;;;;;;;13.70;8.60;;;;;;;-4.07;89.22;100226.99;106108;1256;73873;-76
2023/01/09 10:41:58;;;;;;;13.60;8.30;;;;;;;-4.08;89.31;100220.30;106006;1258;71352;-77
2023/01/09 10:44:37;;;;;;;12.50;7.90;;;;;;;-4.07;89.42;100218.39;105697;1256;72238;-78
2023/01/09 10:47:17;;;;;;;12.10;6.90;;;;;;;-3.95;89.24;100223.04;105745;1258;62030;-77
2023/01/09 10:49:45;;;;;;;13.50;7.40;;;;;;;-3.89;89.25;100224.19;106331;1258;60733;-77
2023/01/09 10:52:17;;;;;;;11.20;7.30;;;;;;;-3.92;89.46;100214.64;106777;1254;75807;-78
2023/01/09 10:54:54;;;;;;;12.10;7.20;;;;;;;-3.98;89.75;100218.15;106759;1254;69602;-76
2023/01/09 10:57:36;;;;;;;13.30;6.80;;;;;;;-3.93;89.90;100223.64;105827;1254;73575;-78
2023/01/09 11:00:04;;;;;;;15.00;7.70;;;;;;;-3.86;89.98;100213.82;106144;1256;62008;-76
2023/01/09 11:02:33;;;;;;;14.50;7.70;;;;;;;-3.90;90.20;100212.31;105894;1256;62287;-78
2023/01/09 11:05:00;;;;;;;14.40;7.90;;;;;;;-3.95;90.39;100213.73;105625;1255;76033;-77
2023/01/09 11:07:36;;;;;;;13.20;7.50;;;;;;;-3.99;91.02;100215.10;105566;1260;71327;-79
2023/01/09 11:10:06;;;;;;;12.10;7.50;;;;;;;-3.91;91.13;100218.02;105582;1260;71214;-78
2023/01/09 11:12:34;;;;;;;12.50;7.40;;;;;;;-3.84;91.02;100205.27;105549;1256;60494;-77
2023/01/09 11:15:19;;;;;;;13.50;8.30;;;;;;;-3.89;91.40;100210.02;105847;1255;62081;-78
2023/01/09 11:17:46;;;;;;;15.00;8.40;;;;;;;-3.95;91.76;100197.25;105637;1256;73833;-78
2023/01/09 11:20:26;;;;;;;11.00;6.60;;;;;;;-3.92;91.88;100202.00;105580;1255;72286;-75
2023/01/09 11:22:57;;;;;;;10.60;6.80;;;;;;;-3.80;91.70;100189.86;105699;1256;73740;-78
2023/01/09 11:25:27;;;;;;;10.40;6.80;;;;;;;-3.80;91.89;100186.77;105788;1257;60561;-78
2023/01/09 11:28:05;;;;;;;11.70;7.40;;;;;;;-3.86;92.15;100194.27;105952;1257;60815;-79
2023/01/09 11:30:35;;;;;;;13.60;6.40;;;;;;;-3.88;92.40;100204.93;105726;1258;74931;-77
2023/01/09 11:33:13;;;;;;;10.10;7.20;;;;;;;-3.75;92.01;100195.55;105648;1258;70134;-78
2023/01/09 11:35:51;;;;;;;11.50;7.30;;;;;;;-3.68;92.00;100203.41;105729;1254;71786;-78